Date,TemperatureHighF,TemperatureAvgF,TemperatureLowF,DewpointHighF,DewpointAvgF,DewpointLowF,HumidityHigh,HumidityAvg,HumidityLow,PressureMaxIn,PressureMinIn,WindSpeedMaxMPH,WindSpeedAvgMPH,GustSpeedMaxMPH,PrecipitationSumIn
2013-7-1,81,73,61,57,54,52,82,55,36,30.17,30.10,10,4,0,0.00
2013-7-2,84,72,61,61,56,54,82,59,39,30.18,30.08,7,2,0,0.00
2013-7-3,84,73,63,64,61,57,88,65,42,30.13,30.05,6,2,0,0.00
2013-7-4,86,76,63,63,59,54,88,58,33,30.14,30.04,8,3,0,0.00
2013-7-5,90,79,66,66,62,57,88,58,35,30.10,30.01,10,5,0,0.00
2013-7-6,91,79,66,70,65,63,88,64,38,30.07,29.96,9,4,0,0.00
2013-7-7,91,82,72,70,67,64,83,62,43,30.05,29.99,12,6,0,0.00
2013-7-8,88,82,79,77,71,66,74,69,61,30.09,30.02,13,5,0,0.00
2013-7-9,95,86,79,79,75,72,83,70,52,30.07,29.93,12,4,0,0.00
2013-7-10,88,81,70,79,64,-100,88,60,42,30.13,29.94,9,3,0,0.00
2013-7-11,84,75,64,63,59,55,88,59,37,30.19,30.12,7,2,0,0.00
2013-7-12,86,76,64,63,59,54,88,57,33,30.20,30.12,12,4,0,0.00
2013-7-13,81,72,64,66,62,57,83,69,54,30.19,30.12,8,3,0,0.00
2013-7-14,88,78,66,68,64,63,88,63,43,30.27,30.17,9,4,0,0.00
2013-7-15,91,80,72,75,70,64,88,72,52,30.33,30.24,10,2,0,0.00
2013-7-16,93,84,75,75,73,72,88,69,49,30.39,30.32,8,3,0,0.00
2013-7-17,97,87,77,75,72,70,83,62,41,30.41,30.30,8,3,0,0.00
2013-7-18,97,88,79,75,71,64,78,58,34,30.32,30.06,10,4,0,0.00
2013-7-19,97,88,79,75,70,66,78,56,36,30.07,29.89,12,5,0,0.00
2013-7-20,90,80,72,73,63,-100,78,60,33,30.02,29.94,8,2,0,0.00
2013-7-21,86,76,70,73,68,64,94,78,61,30.02,29.89,10,3,0,0.00
2013-7-22,93,79,66,79,70,61,94,75,49,29.98,29.82,12,3,0,0.00
2013-7-23,79,74,68,66,62,59,83,67,53,30.06,29.82,9,3,0,0.00
2013-7-24,81,72,63,64,61,57,93,69,50,30.16,30.06,7,2,0,0.00
2013-7-25,86,76,64,66,63,59,82,65,45,30.20,30.09,9,4,0,0.00
2013-7-26,84,75,66,72,64,55,94,69,41,30.13,30.05,8,3,0,0.00
2013-7-27,73,66,57,57,52,46,87,62,43,30.17,30.08,9,3,0,0.00
2013-7-28,79,67,55,55,51,48,82,56,38,30.17,30.08,8,3,0,0.00
2013-7-29,77,68,57,63,57,52,87,68,53,30.25,30.17,9,3,0,0.00
2013-7-30,73,70,66,70,67,63,94,90,77,30.21,30.12,7,3,0,0.00
2013-7-31,82,75,68,70,66,64,94,77,54,30.23,30.12,6,2,0,0.00